Time;durP1;ratioP1;P1;durP2;ratioP2;P2;SDS_P1;SDS_P2;PMS_P1;PMS_P2;Temp;Humidity;BMP_temperature;BMP_pressure;BME280_temperature;BME280_humidity;BME280_pressure;Samples;Min_cycle;Max_cycle;Signal;HPM_P1;HPM_P2
2022/10/31 00:01:27;;;;;;;16.48;11.63;;;;;;;10.85;100.00;99236.56;5059905;28;20085;-59
2022/10/31 00:03:53;;;;;;;17.17;11.80;;;;;;;10.87;100.00;99237.38;5057611;28;20805;-58
2022/10/31 00:06:20;;;;;;;32.30;12.63;;;;;;;10.77;100.00;99234.94;5059321;28;20101;-57
2022/10/31 00:08:47;;;;;;;25.05;11.60;;;;;;;10.63;100.00;99217.09;5058154;28;20041;-57
2022/10/31 00:11:13;;;;;;;21.13;11.73;;;;;;;10.60;100.00;99235.09;5057947;28;20044;-58
2022/10/31 00:13:38;;;;;;;15.98;10.80;;;;;;;10.61;100.00;99241.91;5057637;28;20048;-57
2022/10/31 00:16:05;;;;;;;17.50;11.40;;;;;;;10.52;100.00;99224.06;5038499;28;20143;-56
2022/10/31 00:18:31;;;;;;;15.02;10.30;;;;;;;10.64;100.00;99241.03;5058283;28;20044;-58
2022/10/31 00:21:03;;;;;;;19.00;10.55;;;;;;;10.47;100.00;99215.56;5059662;28;20510;-60
2022/10/31 00:23:29;;;;;;;12.88;9.48;;;;;;;10.65;100.00;99237.63;5034685;28;20490;-59
2022/10/31 00:26:03;;;;;;;16.27;11.15;;;;;;;10.50;100.00;99218.94;5040977;28;20044;-59
2022/10/31 00:28:30;;;;;;;20.55;11.18;;;;;;;10.57;100.00;99240.22;5056870;28;20040;-58
2022/10/31 00:31:00;;;;;;;18.30;12.30;;;;;;;10.41;100.00;99226.72;5057940;28;20040;-59
2022/10/31 00:33:26;;;;;;;41.45;13.10;;;;;;;10.48;100.00;99242.91;5058433;28;20048;-60
2022/10/31 00:35:52;;;;;;;29.02;13.65;;;;;;;10.43;100.00;99226.69;5041525;28;20041;-60
2022/10/31 00:38:18;;;;;;;29.13;13.45;;;;;;;10.50;100.00;99244.56;5038881;28;20533;-60
2022/10/31 00:40:43;;;;;;;40.15;14.63;;;;;;;10.54;100.00;99250.53;5057805;28;20044;-57
2022/10/31 00:43:09;;;;;;;37.10;13.85;;;;;;;10.46;100.00;99244.63;5058698;28;20341;-60
2022/10/31 00:45:34;;;;;;;22.85;11.75;;;;;;;10.34;100.00;99226.78;5057896;28;20190;-58
2022/10/31 00:48:00;;;;;;;35.83;13.05;;;;;;;10.41;100.00;99248.91;5036325;28;20207;-61
2022/10/31 00:50:26;;;;;;;29.95;13.70;;;;;;;10.36;100.00;99243.84;5041357;28;20051;-59
2022/10/31 00:52:51;;;;;;;45.50;14.48;;;;;;;10.36;100.00;99243.84;5057812;28;20037;-60
2022/10/31 00:55:17;;;;;;;28.85;14.68;;;;;;;10.22;100.00;99226.88;5045568;28;20178;-60
2022/10/31 00:57:46;;;;;;;42.95;15.48;;;;;;;10.37;100.00;99252.38;5061522;28;20037;-58
2022/10/31 01:00:12;;;;;;;27.65;13.63;;;;;;;10.38;100.00;99248.97;5055686;28;20040;-59
2022/10/31 01:02:39;;;;;;;34.58;13.77;;;;;;;10.31;100.00;99244.75;5042417;28;20056;-58
2022/10/31 01:05:05;;;;;;;30.58;13.40;;;;;;;10.16;100.00;99220.09;5042526;28;20131;-59
2022/10/31 01:07:31;;;;;;;24.40;11.65;;;;;;;10.20;100.00;99229.44;5060635;28;20046;-59
2022/10/31 01:09:56;;;;;;;17.55;11.45;;;;;;;10.34;100.00;99249.84;5061653;28;20552;-58
2022/10/31 01:12:22;;;;;;;20.73;12.35;;;;;;;10.27;100.00;99237.97;5060253;28;20375;-59
2022/10/31 01:14:49;;;;;;;18.05;10.88;;;;;;;10.26;100.00;99229.41;5038588;28;20048;-57
2022/10/31 01:17:17;;;;;;;21.27;13.15;;;;;;;10.38;100.00;99247.25;5060372;28;20064;-58
2022/10/31 01:19:45;;;;;;;18.17;13.27;;;;;;;10.30;100.00;99235.34;5043305;28;20057;-58
2022/10/31 01:22:10;;;;;;;23.23;12.60;;;;;;;10.22;100.00;99234.56;5062389;28;20039;-59
2022/10/31 01:24:36;;;;;;;22.58;12.45;;;;;;;10.33;100.00;99243.88;5060419;28;20091;-59
2022/10/31 01:27:02;;;;;;;24.23;13.82;;;;;;;10.29;100.00;99242.19;5062285;28;20044;-57
2022/10/31 01:29:31;;;;;;;17.42;11.02;;;;;;;10.26;100.00;99234.53;5059929;28;20052;-59
2022/10/31 01:31:57;;;;;;;16.33;11.38;;;;;;;10.23;100.00;99242.22;5061539;28;20524;-57
2022/10/31 01:34:23;;;;;;;19.58;11.60;;;;;;;10.07;100.00;99220.97;5041035;28;20506;-59
2022/10/31 01:36:51;;;;;;;14.80;11.07;;;;;;;10.15;100.00;99232.88;5058319;28;20498;-59
2022/10/31 01:39:18;;;;;;;21.83;11.95;;;;;;;10.11;100.00;99229.47;5054818;28;20056;-59
2022/10/31 01:41:49;;;;;;;18.02;11.88;;;;;;;9.99;100.00;99216.78;5059387;28;20048;-58
2022/10/31 01:44:15;;;;;;;15.85;11.18;;;;;;;10.03;100.00;99236.38;5058095;28;20036;-59
2022/10/31 01:46:46;;;;;;;15.38;10.32;;;;;;;10.02;100.00;99232.09;5057284;28;20569;-58
2022/10/31 01:49:21;;;;;;;22.05;11.65;;;;;;;10.03;100.00;99239.78;5037903;28;20445;-58
2022/10/31 01:52:02;;;;;;;14.43;10.02;;;;;;;9.96;100.00;99222.78;5041049;28;20089;-59
2022/10/31 01:54:34;;;;;;;17.20;11.68;;;;;;;10.01;100.00;99235.56;5056933;28;20495;-57
2022/10/31 01:57:02;;;;;;;16.35;11.70;;;;;;;9.97;100.00;99216.75;5024999;28;20056;-59
2022/10/31 01:59:33;;;;;;;14.50;10.30;;;;;;;9.99;100.00;99219.34;5041216;28;20056;-58
2022/10/31 02:02:00;;;;;;;14.43;10.32;;;;;;;10.05;100.00;99238.09;5058705;28;20053;-57
2022/10/31 02:04:26;;;;;;;17.80;10.40;;;;;;;10.03;100.00;99233.81;5039404;28;20309;-56
2022/10/31 02:06:58;;;;;;;18.95;10.65;;;;;;;10.04;100.00;99240.66;5057803;28;20059;-57
2022/10/31 02:09:25;;;;;;;15.65;9.98;;;;;;;9.98;100.00;99231.28;5056487;28;20048;-57
2022/10/31 02:11:57;;;;;;;14.60;10.13;;;;;;;10.05;100.00;99229.53;5058648;28;20123;-58
2022/10/31 02:14:26;;;;;;;16.02;11.18;;;;;;;10.12;100.00;99228.63;5042226;28;20036;-59
2022/10/31 02:16:53;;;;;;;14.90;9.63;;;;;;;10.17;100.00;99233.75;5061523;28;20039;-58
2022/10/31 02:19:34;;;;;;;13.77;9.45;;;;;;;10.21;100.00;99238.84;5058300;28;20036;-57
2022/10/31 02:22:05;;;;;;;14.60;10.00;;;;;;;10.20;100.00;99236.28;5056378;28;20050;-57
2022/10/31 02:24:57;;;;;;;15.82;9.77;;;;;;;10.15;100.00;99236.31;5038655;28;20041;-58
2022/10/31 02:27:32;;;;;;;13.63;9.70;;;;;;;10.12;100.00;99240.59;5044379;28;20044;-59
2022/10/31 02:30:05;;;;;;;12.55;8.63;;;;;;;10.05;100.00;99239.78;5036757;28;20514;-58
2022/10/31 02:32:50;;;;;;;12.15;9.68;;;;;;;10.00;100.00;99237.25;5038631;28;20047;-59
2022/10/31 02:35:43;;;;;;;13.75;8.82;;;;;;;9.95;100.00;99235.59;5041780;28;20390;-60
2022/10/31 02:38:32;;;;;;;11.30;8.82;;;;;;;9.89;100.00;99235.59;5060553;28;20037;-56
2022/10/31 02:41:26;;;;;;;10.32;8.40;;;;;;;9.90;100.00;99235.59;5052314;28;20398;-58
2022/10/31 02:44:30;;;;;;;10.55;8.40;;;;;;;9.90;100.00;99233.06;5057836;28;20036;-58
2022/10/31 02:47:16;;;;;;;10.05;8.77;;;;;;;9.92;100.00;99228.78;5032578;28;20052;-59
2022/10/31 02:49:48;;;;;;;11.65;8.40;;;;;;;9.83;100.00;99241.66;5041934;28;20048;-58
2022/10/31 02:52:18;;;;;;;9.48;7.43;;;;;;;9.82;100.00;99244.19;5041960;28;20060;-57
2022/10/31 02:54:45;;;;;;;11.05;7.57;;;;;;;9.84;100.00;99233.09;5060331;28;20048;-57
2022/10/31 02:57:11;;;;;;;11.55;7.30;;;;;;;9.71;100.00;99233.19;5057203;28;20428;-58
2022/10/31 02:59:41;;;;;;;9.80;7.32;;;;;;;9.73;100.00;99223.78;5032323;28;20047;-59
2022/10/31 03:02:27;;;;;;;11.02;7.93;;;;;;;9.74;100.00;99220.34;5054814;28;20098;-58
2022/10/31 03:05:37;;;;;;;10.52;8.27;;;;;;;9.79;100.00;99241.66;5041340;28;20059;-59
2022/10/31 03:08:22;;;;;;;12.68;7.82;;;;;;;9.73;100.00;99239.97;5026283;28;20054;-57
2022/10/31 03:11:01;;;;;;;9.35;7.80;;;;;;;9.71;100.00;99228.06;5057300;28;20090;-57
2022/10/31 03:13:34;;;;;;;8.98;7.22;;;;;;;9.75;100.00;99245.97;5042404;28;20033;-59
2022/10/31 03:16:21;;;;;;;9.35;7.75;;;;;;;9.61;100.00;99215.31;5059601;28;20040;-58
2022/10/31 03:18:58;;;;;;;9.63;7.55;;;;;;;9.72;100.00;99248.53;5057734;28;20218;-59
2022/10/31 03:21:28;;;;;;;10.02;7.32;;;;;;;9.59;100.00;99227.25;5060248;28;20086;-57
2022/10/31 03:23:56;;;;;;;9.27;7.30;;;;;;;9.69;100.00;99245.13;5060756;28;20040;-57
2022/10/31 03:26:23;;;;;;;12.57;7.50;;;;;;;9.58;100.00;99253.75;5059402;28;20040;-59
2022/10/31 03:29:01;;;;;;;12.45;7.82;;;;;;;9.55;100.00;99255.44;5039921;28;20032;-57
2022/10/31 03:31:33;;;;;;;10.95;7.68;;;;;;;9.60;100.00;99256.28;5029631;28;20048;-58
2022/10/31 03:34:02;;;;;;;12.32;8.73;;;;;;;9.58;100.00;99260.56;5060275;28;20147;-57
2022/10/31 03:36:32;;;;;;;10.38;7.30;;;;;;;9.55;100.00;99258.84;5021523;28;20040;-59
2022/10/31 03:39:02;;;;;;;11.77;7.53;;;;;;;9.51;100.00;99258.88;5059120;28;20055;-57
2022/10/31 03:41:31;;;;;;;12.63;8.20;;;;;;;9.47;100.00;99247.81;5042257;28;20039;-57
2022/10/31 03:44:07;;;;;;;16.38;8.30;;;;;;;9.43;100.00;99240.13;5059751;28;20037;-59
2022/10/31 03:46:33;;;;;;;11.90;7.40;;;;;;;9.36;100.00;99256.41;5041976;28;20036;-60
2022/10/31 03:48:59;;;;;;;13.52;8.48;;;;;;;9.45;100.00;99261.47;5059239;28;20159;-59
2022/10/31 03:51:28;;;;;;;13.20;7.88;;;;;;;9.39;100.00;99253.81;5041774;28;20465;-59
2022/10/31 03:54:03;;;;;;;11.48;7.35;;;;;;;9.32;100.00;99257.25;5058601;28;20048;-58
2022/10/31 03:56:45;;;;;;;9.27;7.85;;;;;;;9.29;100.00;99264.97;5059119;28;20052;-59
2022/10/31 03:59:17;;;;;;;14.57;8.27;;;;;;;9.22;100.00;99256.44;5060717;28;20523;-57
2022/10/31 04:01:48;;;;;;;14.02;7.38;;;;;;;9.20;100.00;99247.09;5058733;28;20053;-58
2022/10/31 04:04:15;;;;;;;12.05;8.23;;;;;;;9.32;100.00;99262.38;5059483;28;20059;-60
2022/10/31 04:06:44;;;;;;;10.90;8.07;;;;;;;9.24;100.00;99228.31;5041190;28;20082;-58
2022/10/31 04:09:10;;;;;;;12.57;8.27;;;;;;;9.24;100.00;99241.09;5040852;28;20063;-57
2022/10/31 04:11:46;;;;;;;13.90;7.63;;;;;;;9.35;100.00;99258.09;5039002;28;20048;-57
2022/10/31 04:14:32;;;;;;;8.65;7.05;;;;;;;9.34;100.00;99260.66;5042455;28;20529;-59
2022/10/31 04:16:59;;;;;;;10.05;6.95;;;;;;;9.35;100.00;99241.88;5034703;28;20249;-58
2022/10/31 04:19:33;;;;;;;12.30;8.57;;;;;;;9.36;100.00;99261.50;5040965;28;20060;-57
2022/10/31 04:22:00;;;;;;;12.90;7.30;;;;;;;9.36;100.00;99264.94;5055901;28;20796;-58
2022/10/31 04:24:25;;;;;;;13.60;8.15;;;;;;;9.34;100.00;99266.63;5040195;28;20123;-59
2022/10/31 04:26:51;;;;;;;12.40;7.97;;;;;;;9.31;100.00;99264.09;5057304;28;21009;-58
2022/10/31 04:29:18;;;;;;;12.82;7.90;;;;;;;9.31;100.00;99258.97;5057118;28;20040;-58
2022/10/31 04:31:44;;;;;;;10.63;6.85;;;;;;;9.14;100.00;99232.59;5057994;28;20051;-57
2022/10/31 04:34:09;;;;;;;13.27;7.53;;;;;;;9.23;100.00;99267.53;5057540;28;20055;-59
2022/10/31 04:36:35;;;;;;;11.65;7.38;;;;;;;9.22;100.00;99269.22;5040761;28;20037;-57
2022/10/31 04:39:01;;;;;;;14.23;8.05;;;;;;;9.15;100.00;99254.78;5040199;28;20049;-60
2022/10/31 04:41:50;;;;;;;12.70;7.38;;;;;;;8.98;100.00;99243.75;5028714;28;20083;-60
2022/10/31 04:44:17;;;;;;;11.73;7.28;;;;;;;9.07;100.00;99267.59;5040025;28;20048;-59
2022/10/31 04:46:47;;;;;;;8.70;6.88;;;;;;;8.92;100.00;99252.25;5039946;28;20150;-59
2022/10/31 04:49:13;;;;;;;11.93;7.18;;;;;;;8.96;100.00;99248.00;5039327;28;20047;-56
2022/10/31 04:51:39;;;;;;;8.48;6.78;;;;;;;9.08;100.00;99274.38;5059241;28;20799;-58
2022/10/31 04:54:05;;;;;;;23.27;7.53;;;;;;;8.93;100.00;99265.91;5059081;28;20039;-59
2022/10/31 04:56:54;;;;;;;23.60;7.20;;;;;;;8.91;100.00;99272.75;5050408;28;20135;-57
2022/10/31 04:59:21;;;;;;;13.02;6.65;;;;;;;8.95;100.00;99270.19;5054161;28;20759;-58
2022/10/31 05:01:50;;;;;;;9.80;6.57;;;;;;;8.85;100.00;99258.25;5055175;28;20135;-58
2022/10/31 05:04:21;;;;;;;11.70;6.72;;;;;;;8.96;100.00;99282.09;5024610;28;20041;-58
2022/10/31 05:06:47;;;;;;;12.68;7.50;;;;;;;8.93;100.00;99278.69;5042755;28;20486;-58
2022/10/31 05:09:13;;;;;;;9.07;6.38;;;;;;;8.93;100.00;99276.13;5059522;28;20040;-57
2022/10/31 05:11:39;;;;;;;16.33;7.00;;;;;;;9.00;100.00;99271.00;5041869;28;20643;-58
2022/10/31 05:14:20;;;;;;;12.77;6.53;;;;;;;8.92;100.00;99274.41;5040955;28;20045;-56
2022/10/31 05:17:08;;;;;;;31.20;12.90;;;;;;;8.93;100.00;99281.25;5059489;28;20345;-59
2022/10/31 05:19:57;;;;;;;59.78;30.08;;;;;;;8.96;100.00;99269.31;5042197;28;20098;-59
2022/10/31 05:22:53;;;;;;;34.08;17.05;;;;;;;8.85;100.00;99260.81;5057487;28;20474;-59
2022/10/31 05:25:21;;;;;;;18.48;9.18;;;;;;;8.82;100.00;99277.88;5041078;28;20498;-56
2022/10/31 05:27:50;;;;;;;26.20;7.32;;;;;;;8.67;100.00;99282.13;5057466;28;20163;-56
2022/10/31 05:30:20;;;;;;;17.98;5.78;;;;;;;8.57;100.00;99289.84;5059015;28;20029;-59
2022/10/31 05:32:48;;;;;;;15.30;4.78;;;;;;;8.44;100.00;99285.56;5040707;28;20028;-58
2022/10/31 05:35:32;;;;;;;17.98;6.25;;;;;;;8.41;100.00;99288.97;5056042;28;20094;-58
2022/10/31 05:38:17;;;;;;;12.18;5.72;;;;;;;8.33;100.00;99289.81;5053505;28;20125;-58
2022/10/31 05:40:43;;;;;;;10.68;5.28;;;;;;;8.31;100.00;99281.31;5039652;28;20036;-59
2022/10/31 05:43:08;;;;;;;21.25;5.65;;;;;;;8.27;100.00;99291.47;5025333;28;20037;-57
2022/10/31 05:45:34;;;;;;;14.50;5.28;;;;;;;8.17;100.00;99289.78;5043951;28;20048;-58
2022/10/31 05:48:03;;;;;;;13.75;5.32;;;;;;;8.17;100.00;99292.34;5058091;28;20186;-57
2022/10/31 05:51:06;;;;;;;13.10;5.47;;;;;;;7.99;100.00;99283.78;5061656;28;20041;-60
2022/10/31 05:53:32;;;;;;;9.70;5.53;;;;;;;8.11;100.00;99305.06;5043173;28;20047;-59
2022/10/31 05:55:58;;;;;;;8.52;4.95;;;;;;;8.03;100.00;99280.38;5060350;28;20055;-57
2022/10/31 05:58:24;;;;;;;13.45;5.97;;;;;;;8.17;100.00;99296.59;5042116;28;20067;-57
2022/10/31 06:00:59;;;;;;;9.57;4.63;;;;;;;8.19;100.00;99298.28;5046533;28;20090;-58
2022/10/31 06:03:25;;;;;;;17.20;5.95;;;;;;;8.16;100.00;99300.84;5043140;28;20068;-57
2022/10/31 06:05:54;;;;;;;9.82;5.57;;;;;;;8.13;100.00;99299.97;5041715;28;20407;-58
2022/10/31 06:08:21;;;;;;;15.07;5.53;;;;;;;8.13;100.00;99303.41;5056745;28;20759;-59
2022/10/31 06:10:48;;;;;;;14.45;5.38;;;;;;;8.09;100.00;99309.34;5058572;28;20048;-60
2022/10/31 06:13:18;;;;;;;7.57;5.40;;;;;;;8.02;100.00;99289.72;5046613;28;20105;-60
2022/10/31 06:15:50;;;;;;;10.65;5.47;;;;;;;8.11;100.00;99307.63;5058369;28;20086;-57
2022/10/31 06:18:20;;;;;;;12.75;5.53;;;;;;;7.95;100.00;99298.25;5059373;28;20036;-55
2022/10/31 06:20:48;;;;;;;8.27;4.85;;;;;;;8.06;100.00;99309.31;5040916;28;20037;-60
2022/10/31 06:23:14;;;;;;;11.52;5.25;;;;;;;8.03;100.00;99306.78;5056071;28;20673;-59
2022/10/31 06:25:42;;;;;;;10.30;5.53;;;;;;;8.14;100.00;99317.88;5038955;28;20132;-60
2022/10/31 06:28:10;;;;;;;15.45;5.30;;;;;;;8.25;100.00;99322.97;5041184;28;20869;-60
2022/10/31 06:30:50;;;;;;;16.88;6.90;;;;;;;8.24;100.00;99319.56;5040286;28;20059;-60
2022/10/31 06:33:16;;;;;;;15.73;6.45;;;;;;;8.26;100.00;99322.13;5042426;28;20068;-60
2022/10/31 06:35:52;;;;;;;18.77;5.65;;;;;;;8.40;100.00;99322.19;5037099;28;20048;-61
2022/10/31 06:38:18;;;;;;;19.75;5.65;;;;;;;8.40;100.00;99327.31;5054144;28;20040;-61
2022/10/31 06:40:45;;;;;;;18.13;6.07;;;;;;;8.32;100.00;99334.94;5035577;28;20407;-58
2022/10/31 06:43:25;;;;;;;23.13;6.95;;;;;;;8.35;100.00;99329.00;5059189;28;20040;-59
2022/10/31 06:46:07;;;;;;;19.88;7.75;;;;;;;8.28;100.00;99334.06;5041098;28;20036;-63
2022/10/31 06:48:41;;;;;;;22.90;7.28;;;;;;;8.31;100.00;99335.81;5060527;28;20082;-60
2022/10/31 06:51:19;;;;;;;22.05;7.30;;;;;;;8.38;100.00;99340.06;5044673;28;20028;-60
2022/10/31 06:53:45;;;;;;;25.20;7.28;;;;;;;8.32;100.00;99318.78;5041452;28;20060;-60
2022/10/31 06:56:12;;;;;;;33.83;8.50;;;;;;;8.40;100.00;99340.06;5026331;28;20117;-61
2022/10/31 06:58:46;;;;;;;39.83;7.53;;;;;;;8.26;100.00;99322.13;5060022;28;20554;-60
2022/10/31 07:01:12;;;;;;;26.73;7.05;;;;;;;8.44;100.00;99344.34;5044965;28;20036;-60
2022/10/31 07:03:38;;;;;;;28.85;7.25;;;;;;;8.42;100.00;99336.66;5036148;28;20070;-62
2022/10/31 07:06:05;;;;;;;24.80;7.22;;;;;;;8.47;100.00;99346.88;5059362;28;20070;-56
2022/10/31 07:08:31;;;;;;;25.33;6.60;;;;;;;8.48;100.00;99344.34;5043469;28;20121;-62
2022/10/31 07:10:57;;;;;;;30.40;7.35;;;;;;;8.51;100.00;99354.56;5041352;28;20045;-61
2022/10/31 07:13:27;;;;;;;35.78;7.68;;;;;;;8.56;100.00;99354.56;5059689;28;20476;-61
2022/10/31 07:16:11;;;;;;;12.48;6.88;;;;;;;8.67;100.00;99342.63;5025223;28;20044;-62
2022/10/31 07:18:37;;;;;;;25.05;7.88;;;;;;;8.68;100.00;99345.19;5053665;28;20044;-62
2022/10/31 07:21:03;;;;;;;21.73;6.55;;;;;;;8.75;100.00;99347.72;5040777;28;20040;-62
2022/10/31 07:23:29;;;;;;;35.80;7.38;;;;;;;8.77;100.00;99328.16;5060251;28;20466;-61
2022/10/31 07:26:21;;;;;;;16.85;7.82;;;;;;;9.01;100.00;99357.09;4961269;28;20652;-60
2022/10/31 07:28:48;;;;;;;23.75;7.65;;;;;;;9.10;100.00;99354.53;4969978;28;20113;-61
2022/10/31 07:31:15;;;;;;;26.77;6.97;;;;;;;9.05;100.00;99361.34;4955355;28;20074;-60
2022/10/31 07:33:40;;;;;;;15.05;6.30;;;;;;;9.16;100.00;99356.25;4944923;28;20141;-63
2022/10/31 07:36:38;;;;;;;15.35;6.57;;;;;;;9.31;100.00;99357.91;4943159;28;20057;-61
2022/10/31 07:39:04;;;;;;;29.13;6.78;;;;;;;9.33;100.00;99357.06;4968990;28;20050;-62
2022/10/31 07:41:32;;;;;;;22.95;6.30;;;;;;;9.35;100.00;99359.59;4952639;28;20125;-63
2022/10/31 07:43:58;;;;;;;15.95;6.70;;;;;;;9.41;100.00;99362.16;4951545;28;20510;-62
2022/10/31 07:46:42;;;;;;;30.65;6.45;;;;;;;9.30;100.00;99346.81;4965965;28;20547;-61
2022/10/31 07:49:37;;;;;;;19.55;6.82;;;;;;;9.50;100.00;99352.75;4921216;29;20043;-62
2022/10/31 07:52:09;;;;;;;33.78;7.72;;;;;;;9.52;100.00;99357.84;4922924;29;20115;-61
2022/10/31 07:54:54;;;;;;;;;;;;;;;9.62;100.00;99359.53;4912401;29;20573;-59
2022/10/31 07:57:22;;;;;;;19.73;6.38;;;;;;;9.59;100.00;99339.88;4923394;29;20009;-62
2022/10/31 07:59:48;;;;;;;22.83;8.32;;;;;;;9.71;100.00;99348.41;4923122;29;20537;-61
2022/10/31 08:02:16;;;;;;;36.22;7.65;;;;;;;9.76;100.00;99355.19;4920575;28;20062;-60
2022/10/31 08:04:41;;;;;;;29.02;8.10;;;;;;;9.80;100.00;99351.75;4975385;28;20054;-60
2022/10/31 08:07:19;;;;;;;24.63;7.38;;;;;;;9.62;100.00;99314.31;4977237;28;20066;-61
2022/10/31 08:09:55;;;;;;;23.20;8.13;;;;;;;9.83;100.00;99327.84;4976616;28;20787;-62
2022/10/31 08:12:26;;;;;;;13.82;6.80;;;;;;;10.14;100.00;99343.91;4958839;28;20045;-61
2022/10/31 08:14:52;;;;;;;27.40;7.50;;;;;;;10.23;100.00;99344.72;4973201;28;20043;-61
2022/10/31 08:17:18;;;;;;;18.35;7.93;;;;;;;10.27;100.00;99322.53;4976128;28;20046;-62
2022/10/31 08:19:51;;;;;;;18.10;7.75;;;;;;;10.47;100.00;99346.28;4960525;28;20093;-60
2022/10/31 08:22:18;;;;;;;19.58;7.78;;;;;;;10.51;100.00;99350.53;4945609;28;20085;-61
2022/10/31 08:24:44;;;;;;;13.23;6.82;;;;;;;10.45;100.00;99335.19;4976966;28;20125;-62
2022/10/31 08:27:10;;;;;;;13.32;7.15;;;;;;;10.62;100.00;99341.03;5035462;28;20539;-61
2022/10/31 08:29:37;;;;;;;21.05;7.38;;;;;;;10.67;100.00;99344.44;5021677;28;20610;-61
2022/10/31 08:32:04;;;;;;;20.05;7.38;;;;;;;10.64;100.00;99336.75;5023559;28;20692;-62
2022/10/31 08:34:52;;;;;;;10.02;7.20;;;;;;;10.61;100.00;99333.38;4969021;28;20050;-63
2022/10/31 08:37:36;;;;;;;16.65;7.70;;;;;;;10.58;100.00;99341.94;4970916;28;20057;-62
2022/10/31 08:40:04;;;;;;;19.55;8.23;;;;;;;10.40;100.00;99318.97;4953202;28;20090;-61
2022/10/31 08:42:33;;;;;;;25.88;7.65;;;;;;;10.46;100.00;99336.91;4957457;28;20491;-60
2022/10/31 08:44:59;;;;;;;13.82;8.05;;;;;;;10.39;100.00;99318.16;4958550;28;20791;-61
2022/10/31 08:47:25;;;;;;;12.07;7.57;;;;;;;10.68;100.00;99333.31;4952932;28;20041;-60
2022/10/31 08:49:52;;;;;;;14.40;7.47;;;;;;;10.72;100.00;99332.41;4950227;28;20070;-61
2022/10/31 08:52:22;;;;;;;10.98;7.57;;;;;;;10.81;100.00;99326.38;4952314;28;20097;-62
2022/10/31 08:54:48;;;;;;;10.85;8.27;;;;;;;10.86;100.00;99319.47;4955334;28;20051;-63
2022/10/31 08:57:32;;;;;;;12.63;7.20;;;;;;;11.12;100.00;99334.63;4959978;28;20101;-61
2022/10/31 08:59:58;;;;;;;9.10;7.50;;;;;;;11.27;100.00;99332.75;4948176;28;20042;-60
2022/10/31 09:02:29;;;;;;;6.38;5.63;;;;;;;11.52;100.00;99324.78;4949807;28;20065;-61
2022/10/31 09:04:58;;;;;;;9.00;5.90;;;;;;;11.76;100.00;99320.22;4950994;28;20102;-60
2022/10/31 09:07:24;;;;;;;7.10;5.68;;;;;;;12.04;100.00;99307.88;4934023;28;20093;-61
2022/10/31 09:09:49;;;;;;;8.98;6.93;;;;;;;12.06;100.00;99312.97;4952538;28;20046;-61
2022/10/31 09:12:17;;;;;;;9.90;6.07;;;;;;;12.30;100.00;99302.34;4992507;28;20053;-61
2022/10/31 09:15:15;;;;;;;10.00;6.65;;;;;;;12.10;100.00;99320.59;4977991;28;20056;-64
2022/10/31 09:17:47;;;;;;;6.60;5.93;;;;;;;12.13;100.00;99322.31;5019829;28;20064;-61
2022/10/31 09:20:40;;;;;;;8.27;6.47;;;;;;;12.03;100.00;99324.16;5036352;28;20119;-61
2022/10/31 09:23:16;;;;;;;10.80;7.45;;;;;;;11.89;100.00;99315.75;5005546;28;20483;-61
2022/10/31 09:25:43;;;;;;;11.05;6.88;;;;;;;11.80;100.00;99316.72;5021104;28;20672;-61
2022/10/31 09:28:29;;;;;;;10.65;7.72;;;;;;;11.75;100.00;99309.97;4997736;28;20041;-62
2022/10/31 09:30:59;;;;;;;9.93;7.43;;;;;;;11.42;100.00;99303.47;5023398;28;20051;-61
2022/10/31 09:33:43;;;;;;;9.15;6.80;;;;;;;12.11;100.00;99326.59;5041944;28;20562;-60
2022/10/31 09:36:37;;;;;;;9.52;7.93;;;;;;;11.83;100.00;99314.16;5037801;28;20049;-60
2022/10/31 09:39:05;;;;;;;9.82;7.90;;;;;;;11.79;100.00;99321.91;5022864;28;20187;-60
2022/10/31 09:41:55;;;;;;;9.77;8.77;;;;;;;11.62;100.00;99311.81;5014435;28;20041;-59
2022/10/31 09:44:25;;;;;;;10.30;9.13;;;;;;;11.75;100.00;99323.63;5040468;28;20029;-62
2022/10/31 09:47:12;;;;;;;12.50;8.15;;;;;;;11.75;100.00;99321.06;5023407;28;20037;-60
2022/10/31 09:49:48;;;;;;;11.55;9.88;;;;;;;11.49;100.00;99322.25;5022455;28;20028;-60
2022/10/31 09:52:23;;;;;;;10.40;9.30;;;;;;;11.53;100.00;99329.91;5041418;28;20048;-60
2022/10/31 09:55:02;;;;;;;12.35;8.93;;;;;;;11.72;100.00;99326.25;5015838;28;20048;-61
2022/10/31 09:57:35;;;;;;;8.93;7.45;;;;;;;11.82;100.00;99319.28;5040007;28;20075;-60
2022/10/31 10:00:05;;;;;;;11.23;8.88;;;;;;;11.95;100.00;99320.84;5015003;28;20123;-59
2022/10/31 10:02:58;;;;;;;10.07;8.25;;;;;;;12.05;100.00;99326.72;5055097;28;20043;-60
2022/10/31 10:05:36;;;;;;;10.52;8.05;;;;;;;12.14;100.00;99321.41;5057252;28;20037;-62
2022/10/31 10:08:14;;;;;;;9.75;7.47;;;;;;;12.18;100.00;99321.34;5040499;28;20072;-59
2022/10/31 10:10:59;;;;;;;11.45;9.80;;;;;;;12.27;100.00;99317.78;5057101;28;20029;-60
2022/10/31 10:14:09;;;;;;;9.63;8.20;;;;;;;12.29;100.00;99318.63;5061721;28;20043;-58
2022/10/31 10:16:55;;;;;;;9.57;7.15;;;;;;;12.40;100.00;99318.47;5060143;28;20340;-59
2022/10/31 10:19:21;;;;;;;8.38;7.55;;;;;;;12.39;100.00;99320.19;5039816;28;20059;-58
2022/10/31 10:21:55;;;;;;;12.32;8.23;;;;;;;12.22;100.00;99317.03;5056434;28;20488;-60
2022/10/31 10:24:35;;;;;;;11.03;9.90;;;;;;;12.25;100.00;99312.69;5056365;28;20036;-69
2022/10/31 10:27:08;;;;;;;10.63;8.85;;;;;;;11.85;100.00;99314.97;5038578;28;20090;-68
2022/10/31 10:29:52;;;;;;;12.63;8.75;;;;;;;11.93;100.00;99316.56;5060472;28;20032;-64
2022/10/31 10:32:24;;;;;;;10.13;8.75;;;;;;;11.97;100.00;99306.22;5056527;28;20567;-62
2022/10/31 10:35:14;;;;;;;11.48;8.23;;;;;;;12.16;100.00;99312.81;5057739;28;20051;-69
2022/10/31 10:37:43;;;;;;;12.38;9.07;;;;;;;12.06;100.00;99297.53;5013313;28;20056;-65
2022/10/31 10:40:16;;;;;;;11.82;9.13;;;;;;;12.27;100.00;99312.66;5028657;28;20075;-67
2022/10/31 10:48:39;;;;;;;11.32;8.93;;;;;;;12.35;100.00;99295.38;5056331;28;20495;-66
2022/10/31 10:51:15;;;;;;;8.90;7.97;;;;;;;12.49;100.00;99298.59;5053719;28;20446;-65
2022/10/31 10:54:13;;;;;;;12.65;8.77;;;;;;;12.43;100.00;99301.28;5053542;28;20056;-69
2022/10/31 10:56:57;;;;;;;11.82;8.95;;;;;;;12.51;100.00;99301.16;5036095;28;20475;-71
2022/10/31 10:59:24;;;;;;;15.02;10.43;;;;;;;12.45;100.00;99291.81;5058025;28;20037;-69
2022/10/31 11:01:51;;;;;;;11.23;8.32;;;;;;;12.59;100.00;99310.44;5058594;28;20044;-71
2022/10/31 11:04:39;;;;;;;9.52;7.93;;;;;;;12.56;100.00;99304.50;5059397;28;20033;-72
2022/10/31 11:07:08;;;;;;;12.55;8.30;;;;;;;12.56;100.00;99296.78;5059382;28;20041;-72
2022/10/31 11:09:34;;;;;;;12.15;8.68;;;;;;;12.40;100.00;99285.03;5059384;28;20029;-71
2022/10/31 11:12:08;;;;;;;11.13;7.65;;;;;;;12.51;100.00;99294.28;5058151;28;20055;-72
2022/10/31 11:14:44;;;;;;;10.98;8.15;;;;;;;12.53;100.00;99295.09;5058749;28;20071;-70
2022/10/31 11:17:19;;;;;;;10.93;8.90;;;;;;;12.58;100.00;99293.31;5059530;28;20173;-71
2022/10/31 11:19:44;;;;;;;12.18;9.43;;;;;;;12.13;100.00;99291.47;5059749;28;20139;-74
2022/10/31 11:22:17;;;;;;;16.38;10.15;;;;;;;12.25;100.00;99293.84;5059262;28;20045;-67
2022/10/31 11:24:43;;;;;;;11.43;9.70;;;;;;;12.26;100.00;99295.56;5045638;28;20067;-66
2022/10/31 11:27:29;;;;;;;11.15;8.98;;;;;;;12.36;100.00;99289.38;5054888;28;20028;-67
2022/10/31 11:30:07;;;;;;;12.27;8.93;;;;;;;12.38;100.00;99286.78;5059338;28;20079;-67
2022/10/31 11:32:32;;;;;;;13.13;9.50;;;;;;;12.43;100.00;99288.44;5058035;28;20072;-67
2022/10/31 11:35:01;;;;;;;12.50;8.80;;;;;;;12.54;100.00;99281.38;5061424;28;20248;-69
2022/10/31 11:37:30;;;;;;;11.38;8.77;;;;;;;12.60;100.00;99281.25;5058382;28;20487;-66
2022/10/31 11:39:58;;;;;;;15.60;8.98;;;;;;;12.64;100.00;99279.50;5054160;28;20406;-64
2022/10/31 11:42:34;;;;;;;11.68;9.25;;;;;;;12.54;100.00;99258.22;5037768;28;20075;-66
2022/10/31 11:45:06;;;;;;;11.63;9.43;;;;;;;12.61;100.00;99274.38;5055416;28;20040;-68
2022/10/31 11:47:36;;;;;;;11.05;9.45;;;;;;;12.53;100.00;99251.38;5056007;28;20354;-67
2022/10/31 11:50:20;;;;;;;11.35;9.02;;;;;;;12.57;100.00;99254.75;5055521;28;20831;-68
2022/10/31 11:52:46;;;;;;;11.77;9.50;;;;;;;12.65;100.00;99265.75;5055560;28;20055;-66